createdAt,value
2018-11-06T00:04:01.317Z,100550.58
2018-11-06T00:09:04.162Z,100556.67
2018-11-06T00:14:06.316Z,100560.09
2018-11-06T00:19:08.416Z,100561.78
2018-11-06T00:24:10.556Z,100553.55
2018-11-06T00:29:12.722Z,100547.53
2018-11-06T00:34:14.920Z,100533.86
2018-11-06T00:39:16.943Z,100525.55
2018-11-06T00:44:19.071Z,100512.66
2018-11-06T00:49:21.195Z,100510.83
2018-11-06T00:54:23.319Z,100496.27
2018-11-06T00:59:25.426Z,100485.98
2018-11-06T01:04:27.514Z,100491.17
2018-11-06T01:09:29.629Z,100486.19
2018-11-06T01:14:31.772Z,100480.57
2018-11-06T01:19:33.922Z,100478.59
2018-11-06T01:24:36.017Z,100487.26
2018-11-06T01:29:38.120Z,100475.73
2018-11-06T01:34:40.263Z,100474.77
2018-11-06T01:39:42.366Z,100478.59
2018-11-06T01:44:44.493Z,100484.69
2018-11-06T01:49:46.623Z,100492.30
2018-11-06T01:54:48.754Z,100494.73
2018-11-06T01:59:50.873Z,100497.98
2018-11-06T02:04:52.995Z,100495.45
2018-11-06T02:09:55.086Z,100488.25
2018-11-06T02:14:57.206Z,100482.48
2018-11-06T02:19:59.526Z,100468.19
2018-11-06T02:25:01.671Z,100469.36
2018-11-06T02:30:04.723Z,100458.63
2018-11-06T02:35:07.135Z,100459.05
2018-11-06T02:40:11.006Z,100462.77
2018-11-06T02:45:13.547Z,100470.13
2018-11-06T02:50:15.679Z,100477.20
2018-11-06T02:55:17.802Z,100465.88
2018-11-06T03:00:19.929Z,100476.67
2018-11-06T03:05:22.014Z,100483.98
2018-11-06T03:10:24.195Z,100472.95
2018-11-06T03:15:26.285Z,100463.41
2018-11-06T03:20:28.426Z,100476.38
2018-11-06T03:25:30.555Z,100476.87
2018-11-06T03:30:32.697Z,100468.09
2018-11-06T03:35:34.779Z,100472.56
2018-11-06T03:40:36.894Z,100484.37
2018-11-06T03:45:39.021Z,100475.98
2018-11-06T03:50:41.139Z,100477.63
2018-11-06T03:55:43.231Z,100470.28
2018-11-06T04:00:45.353Z,100474.11
2018-11-06T04:05:47.455Z,100478.84
2018-11-06T04:10:49.547Z,100473.86
2018-11-06T04:15:51.666Z,100458.66
2018-11-06T04:20:53.778Z,100462.58
2018-11-06T04:25:55.886Z,100465.45
2018-11-06T04:30:58.090Z,100463.89
2018-11-06T04:36:00.191Z,100476.83
2018-11-06T04:41:02.318Z,100481.30
2018-11-06T04:46:04.746Z,100497.94
2018-11-06T04:51:06.868Z,100490.52
2018-11-06T04:56:08.984Z,100499.66
2018-11-06T05:01:11.116Z,100498.97
2018-11-06T05:06:13.690Z,100505.03
2018-11-06T05:11:15.810Z,100514.13
2018-11-06T05:16:17.976Z,100511.89
2018-11-06T05:21:20.076Z,100512.56
2018-11-06T05:26:22.236Z,100513.89
2018-11-06T05:31:24.354Z,100521.69
2018-11-06T05:36:26.494Z,100528.42
2018-11-06T05:41:28.640Z,100522.04
2018-11-06T05:46:30.763Z,100497.14
2018-11-06T05:51:32.865Z,100499.59
2018-11-06T05:56:34.994Z,100501.98
2018-11-06T06:01:37.105Z,100510.52
2018-11-06T06:06:39.214Z,100512.02
2018-11-06T06:11:41.360Z,100541.94
2018-11-06T06:16:43.505Z,100568.20
2018-11-06T06:21:45.698Z,100566.22
2018-11-06T06:26:47.841Z,100570.05
2018-11-06T06:31:49.942Z,100580.11
2018-11-06T06:36:52.058Z,100597.86
2018-11-06T06:41:54.204Z,100591.53
2018-11-06T06:46:56.311Z,100612.72
2018-11-06T06:51:58.418Z,100617.52
2018-11-06T06:57:00.506Z,100614.59
2018-11-06T07:02:02.630Z,100624.39
2018-11-06T07:07:04.951Z,100624.77
2018-11-06T07:12:07.070Z,100619.45
2018-11-06T07:17:09.429Z,100612.73
2018-11-06T07:22:11.545Z,100608.63
2018-11-06T07:27:13.796Z,100610.02
2018-11-06T07:32:15.885Z,100614.64
2018-11-06T07:37:17.990Z,100619.78
2018-11-06T07:42:20.101Z,100624.44
2018-11-06T07:47:22.249Z,100624.33
2018-11-06T07:52:24.418Z,100646.98
2018-11-06T07:57:26.541Z,100655.56
2018-11-06T08:02:28.690Z,100662.41
2018-11-06T08:07:30.784Z,100694.30
2018-11-06T08:12:32.917Z,100687.84
2018-11-06T08:17:36.179Z,100702.34
2018-11-06T08:22:38.772Z,100689.33
2018-11-06T08:27:41.810Z,100689.95
2018-11-06T08:32:44.271Z,100679.10
2018-11-06T08:37:46.105Z,100690.45
2018-11-06T08:42:48.255Z,100690.13
2018-11-06T08:47:50.362Z,100695.45
2018-11-06T08:52:52.479Z,100687.91
2018-11-06T08:57:54.618Z,100698.34
2018-11-06T09:02:56.766Z,100712.22
2018-11-06T09:07:58.887Z,100701.60
2018-11-06T09:13:01.019Z,100713.36
2018-11-06T09:18:03.167Z,100704.48
2018-11-06T09:23:05.292Z,100712.71
2018-11-06T09:28:07.375Z,100707.16
2018-11-06T09:33:09.477Z,100717.88
2018-11-06T09:38:11.604Z,100717.88
2018-11-06T09:43:13.753Z,100726.56
2018-11-06T09:48:15.859Z,100720.62
2018-11-06T09:53:18.044Z,100729.57
2018-11-06T09:58:20.184Z,100740.23
2018-11-06T10:03:22.278Z,100738.13
2018-11-06T10:08:24.559Z,100735.05
2018-11-06T10:13:26.709Z,100740.19
2018-11-06T10:18:28.870Z,100747.36
2018-11-06T10:23:30.984Z,100743.59
2018-11-06T10:28:33.154Z,100746.83
2018-11-06T10:33:35.293Z,100743.89
2018-11-06T10:38:37.428Z,100739.74
2018-11-06T10:43:39.595Z,100733.70
2018-11-06T10:48:41.695Z,100733.95
2018-11-06T10:53:43.813Z,100734.88
2018-11-06T10:58:45.933Z,100740.75
2018-11-06T11:03:53.783Z,100740.57
2018-11-06T11:08:55.907Z,100740.98
2018-11-06T11:13:57.994Z,100747.37
2018-11-06T11:19:00.278Z,100742.64
2018-11-06T11:24:02.444Z,100742.30
2018-11-06T11:29:04.739Z,100737.20
2018-11-06T11:34:06.906Z,100742.70
2018-11-06T11:39:09.345Z,100749.27
2018-11-06T11:44:11.495Z,100732.98
2018-11-06T11:49:13.610Z,100736.48
2018-11-06T11:54:15.713Z,100731.52
2018-11-06T11:59:17.890Z,100739.52
2018-11-06T12:04:20.010Z,100732.55
2018-11-06T12:09:22.128Z,100729.26
2018-11-06T12:14:24.263Z,100727.27
2018-11-06T12:19:26.463Z,100718.91
2018-11-06T12:24:28.684Z,100725.31
2018-11-06T12:29:30.761Z,100731.55
2018-11-06T12:34:33.092Z,100718.61
2018-11-06T12:39:35.215Z,100720.67
2018-11-06T12:44:37.356Z,100716.02
2018-11-06T12:49:39.478Z,100718.24
2018-11-06T12:54:41.622Z,100729.20
2018-11-06T12:59:43.927Z,100716.15
2018-11-06T13:04:46.080Z,100707.92
2018-11-06T13:09:48.233Z,100712.61
2018-11-06T13:14:50.343Z,100704.00
2018-11-06T13:19:52.508Z,100691.27
2018-11-06T13:24:54.623Z,100682.50
2018-11-06T13:29:56.770Z,100682.94
2018-11-06T13:34:58.932Z,100684.66
2018-11-06T13:40:01.030Z,100687.87
2018-11-06T13:45:03.714Z,100696.30
2018-11-06T13:50:06.210Z,100695.45
2018-11-06T13:55:09.591Z,100702.05
2018-11-06T14:00:14.242Z,100703.92
2018-11-06T14:05:16.546Z,100705.83
2018-11-06T14:10:18.690Z,100696.83
2018-11-06T14:15:20.819Z,100695.53
2018-11-06T14:20:22.942Z,100711.85
2018-11-06T14:25:25.082Z,100726.84
2018-11-06T14:30:27.220Z,100723.41
2018-11-06T14:35:29.343Z,100717.88
2018-11-06T14:40:31.463Z,100715.54
2018-11-06T14:45:33.609Z,100722.44
2018-11-06T14:50:35.737Z,100729.78
2018-11-06T14:55:38.014Z,100738.27
2018-11-06T15:00:40.265Z,100741.73
2018-11-06T15:05:42.472Z,100740.57
2018-11-06T15:10:44.553Z,100739.88
2018-11-06T15:15:46.698Z,100740.47
2018-11-06T15:20:48.900Z,100735.18
2018-11-06T15:25:51.003Z,100746.58
2018-11-06T15:30:53.127Z,100755.63
2018-11-06T15:35:55.248Z,100748.46
2018-11-06T15:40:57.423Z,100748.42
2018-11-06T15:45:59.566Z,100747.88
2018-11-06T15:51:01.744Z,100744.15
2018-11-06T15:56:04.008Z,100747.84
2018-11-06T16:01:06.208Z,100762.66
2018-11-06T16:06:08.345Z,100754.91
2018-11-06T16:11:10.531Z,100754.91
2018-11-06T16:16:12.687Z,100766.78
2018-11-06T16:21:14.871Z,100767.38
2018-11-06T16:26:17.056Z,100772.61
2018-11-06T16:31:19.237Z,100777.03
2018-11-06T16:36:21.464Z,100773.02
2018-11-06T16:41:23.644Z,100780.19
2018-11-06T16:46:25.773Z,100781.50
2018-11-06T16:51:27.932Z,100778.00
2018-11-06T16:56:30.126Z,100787.36
2018-11-06T17:01:32.298Z,100787.02
2018-11-06T17:06:34.513Z,100782.03
2018-11-06T17:11:36.881Z,100791.06
2018-11-06T17:16:39.030Z,100792.63
2018-11-06T17:21:41.364Z,100791.18
2018-11-06T17:26:43.507Z,100798.46
2018-11-06T17:31:45.681Z,100798.41
2018-11-06T17:36:47.839Z,100796.89
2018-11-06T17:41:50.036Z,100796.75
2018-11-06T17:46:52.207Z,100798.66
2018-11-06T17:51:54.544Z,100812.72
2018-11-06T17:56:56.738Z,100820.33
2018-11-06T18:01:58.992Z,100817.20
2018-11-06T18:07:01.168Z,100815.33
2018-11-06T18:12:03.368Z,100823.50
2018-11-06T18:17:05.672Z,100814.09
2018-11-06T18:22:07.888Z,100803.32
2018-11-06T18:27:11.066Z,100802.06
2018-11-06T18:32:14.737Z,100800.51
2018-11-06T18:37:17.082Z,100800.98
2018-11-06T18:42:19.289Z,100796.36
2018-11-06T18:47:21.465Z,100796.21
2018-11-06T18:52:23.661Z,100792.31
2018-11-06T18:57:26.153Z,100801.52
2018-11-06T19:02:28.612Z,100801.88
2018-11-06T19:07:30.838Z,100807.68
2018-11-06T19:12:33.491Z,100807.36
2018-11-06T19:17:35.745Z,100807.30
2018-11-06T19:22:38.566Z,100804.97
2018-11-06T19:27:40.837Z,100810.53
2018-11-06T19:32:43.398Z,100810.53
2018-11-06T19:37:46.180Z,100804.39
2018-11-06T19:42:49.155Z,100800.54
2018-11-06T19:47:52.218Z,100796.95
2018-11-06T19:52:55.869Z,100792.51
2018-11-06T19:57:59.044Z,100789.56
2018-11-06T20:03:03.195Z,100791.23
2018-11-06T20:08:06.925Z,100789.27
2018-11-06T20:13:09.506Z,100791.26
2018-11-06T20:18:12.651Z,100782.57
2018-11-06T20:23:15.229Z,100780.38
2018-11-06T20:28:19.887Z,100777.86
2018-11-06T20:33:23.391Z,100782.76
2018-11-06T20:38:26.843Z,100782.37
2018-11-06T20:43:29.699Z,100777.00
2018-11-06T20:48:32.381Z,100771.10
2018-11-06T20:53:34.986Z,100769.90
2018-11-06T20:58:37.627Z,100782.22
2018-11-06T21:03:40.856Z,100780.25
2018-11-06T21:08:44.674Z,100771.34
2018-11-06T21:13:47.601Z,100771.44
2018-11-06T21:18:50.173Z,100768.03
2018-11-06T21:23:55.259Z,100767.17
2018-11-06T21:28:58.182Z,100765.52
2018-11-06T21:34:00.923Z,100768.05
2018-11-06T21:39:05.239Z,100760.22
2018-11-06T21:44:07.554Z,100762.19
2018-11-06T21:49:09.812Z,100768.30
2018-11-06T21:54:11.964Z,100763.21
2018-11-06T21:59:14.153Z,100754.00
2018-11-06T22:04:16.299Z,100745.69
2018-11-06T22:09:18.478Z,100746.28
2018-11-06T22:14:20.616Z,100735.84
2018-11-06T22:19:23.369Z,100734.45
2018-11-06T22:24:25.542Z,100731.05
2018-11-06T22:29:27.664Z,100737.02
2018-11-06T22:34:29.828Z,100733.23
2018-11-06T22:39:31.975Z,100726.25
2018-11-06T22:44:34.091Z,100715.52
2018-11-06T22:49:36.222Z,100708.64
2018-11-06T22:54:38.355Z,100706.79
2018-11-06T22:59:40.486Z,100705.73
2018-11-06T23:04:42.712Z,100705.07
2018-11-06T23:09:44.891Z,100706.78
2018-11-06T23:14:47.074Z,100706.98
2018-11-06T23:19:49.235Z,100702.61
2018-11-06T23:24:51.424Z,100709.97
2018-11-06T23:29:53.511Z,100708.70
2018-11-06T23:34:55.640Z,100698.13
2018-11-06T23:39:57.768Z,100683.06
2018-11-06T23:45:00.064Z,100695.61
2018-11-06T23:50:02.570Z,100698.45
2018-11-06T23:55:05.038Z,100691.95
